Data for 12/28/2006

Time Sea-Level Adjusted Pressure Absolute Pressure Temperature Relative Humidity Dew Point   
(mb) (inHg) (mb) (inHg) (C) (F) (%) (C) (F)
00:05 1010 29.83 839 24.78 0.1 32.2 99 -0.1 31.8
00:10 1010 29.83 840 24.81 0.1 32.2 99 -0.1 31.8
00:15 1010 29.83 840 24.81 0.1 32.1 99 -0.1 31.8
00:20 1010 29.83 840 24.81 0 32.1 99 -0.1 31.8
00:25 1011 29.85 840 24.81 -0 32 99 -0.2 31.7
00:30 1011 29.85 840 24.81 -0 31.9 99 -0.2 31.7
00:35 1011 29.85 840 24.81 -0 32 99 -0.1 31.8
00:40 1011 29.85 840 24.81 -0.1 31.8 99 -0.2 31.7
00:45 1011 29.85 840 24.81 -0.1 31.8 99 -0.2 31.7
00:50 1011 29.85 840 24.81 -0.1 31.7 99 -0.2 31.6
00:55 1011 29.85 840 24.81 -0.2 31.6 100 -0.3 31.5
01:00 1011 29.85 840 24.81 -0.2 31.6 100 -0.3 31.4
01:05 1011 29.85 841 24.83 -0.3 31.4 100 -0.4 31.2
01:10 1012 29.88 841 24.83 -0.4 31.3 99 -0.5 31.1
01:15 1012 29.88 841 24.83 -0.5 31.1 100 -0.6 31
01:20 1012 29.88 841 24.83 -0.6 30.9 100 -0.7 30.8
01:25 1012 29.88 841 24.83 -0.6 30.8 100 -0.7 30.7
01:30 1012 29.88 841 24.83 -0.6 30.9 100 -0.7 30.8
01:35 1012 29.88 841 24.83 -0.6 30.8 100 -0.7 30.8
01:40 1012 29.88 841 24.83 -0.6 30.9 100 -0.6 30.9
01:45 1012 29.88 842 24.86 -0.6 30.8 100 -0.7 30.8
01:50 1012 29.88 842 24.86 -0.7 30.7 100 -0.8 30.6
01:55 1013 29.91 842 24.86 -0.8 30.6 100 -0.8 30.6
02:00 1013 29.91 842 24.86 -0.8 30.6 100 -0.8 30.6
02:05 1013 29.91 842 24.86 -0.9 30.5 100 -0.9 30.4
02:10 1013 29.91 842 24.86 -0.9 30.3 100 -1 30.3
02:15 1013 29.91 842 24.86 -1.1 30.1 100 -1.1 30
02:20 1013 29.91 842 24.86 -1.2 29.8 100 -1.2 29.8
02:25 1013 29.91 843 24.89 -1.3 29.7 100 -1.3 29.7
02:30 1014 29.94 843 24.89 -1.4 29.5 100 -1.5 29.4
02:35 1014 29.94 843 24.89 -1.5 29.4 100 -1.5 29.3
02:40 1014 29.94 843 24.89 -1.6 29.2 100 -1.6 29.1
02:45 1014 29.94 843 24.89 -1.6 29.1 100 -1.7 29
02:50 1014 29.94 843 24.89 -1.8 28.8 99 -1.9 28.6
02:55 1014 29.94 844 24.92 -1.9 28.7 99 -1.9 28.5
03:00 1015 29.97 844 24.92 -1.9 28.6 99 -2 28.4
03:05 1015 29.97 844 24.92 -1.9 28.5 99 -2 28.3
03:10 1015 29.97 844 24.92 -2.1 28.3 99 -2.2 28.1
03:15 1015 29.97 844 24.92 -2.2 28.1 99 -2.3 27.8
03:20 1015 29.97 844 24.92 -2.4 27.7 99 -2.5 27.5
03:25 1015 29.97 845 24.95 -2.4 27.7 99 -2.6 27.4
03:30 1015 29.97 845 24.95 -2.6 27.4 99 -2.8 27
03:35 1016 30 845 24.95 -2.7 27.2 99 -2.9 26.8
03:40 1016 30 845 24.95 -2.8 27 99 -3 26.7
03:45 1016 30 845 24.95 -2.8 26.9 99 -3 26.6
03:50 1016 30 845 24.95 -2.9 26.8 98 -3.1 26.4
03:55 1016 30 845 24.95 -3 26.5 98 -3.3 26.1
04:00 1016 30 846 24.98 -3.1 26.3 98 -3.4 25.9
04:05 1017 30.03 846 24.98 -3.2 26.2 98 -3.5 25.8
04:10 1017 30.03 846 24.98 -3.3 26 98 -3.6 25.5
04:15 1017 30.03 846 24.98 -3.4 25.8 98 -3.7 25.3
04:20 1017 30.03 846 24.98 -3.5 25.7 98 -3.8 25.1
04:25 1017 30.03 846 24.98 -3.6 25.5 98 -3.9 25
04:30 1017 30.03 846 24.98 -3.7 25.3 98 -4 24.8
04:35 1017 30.03 847 25.01 -3.8 25.2 98 -4 24.7
04:40 1018 30.06 847 25.01 -3.8 25.2 98 -4.1 24.6
04:45 1018 30.06 847 25.01 -3.8 25.2 98 -4.1 24.6
04:50 1018 30.06 847 25.01 -3.9 25 98 -4.2 24.4
04:55 1018 30.06 847 25.01 -4 24.8 98 -4.3 24.2
05:00 1018 30.06 847 25.01 -4.1 24.7 97 -4.4 24.1
05:05 1018 30.06 848 25.04 -4.1 24.6 97 -4.5 23.9
05:10 1019 30.09 848 25.04 -4.3 24.3 97 -4.6 23.7
05:15 1019 30.09 848 25.04 -4.4 24.1 97 -4.8 23.4
05:20 1019 30.09 848 25.04 -4.5 23.9 97 -4.9 23.2
05:25 1019 30.09 848 25.04 -4.6 23.7 97 -5 23.1
05:30 1019 30.09 848 25.04 -4.6 23.8 97 -4.9 23.1
05:35 1019 30.09 848 25.04 -4.6 23.7 97 -5 23.1
05:40 1019 30.09 848 25.04 -4.7 23.6 97 -5 23
05:45 1019 30.09 849 25.07 -4.7 23.6 97 -5.1 22.9
05:50 1019 30.09 849 25.07 -4.8 23.4 97 -5.2 22.7
05:55 1020 30.12 849 25.07 -4.9 23.2 97 -5.3 22.5
06:00 1020 30.12 849 25.07 -5 23 97 -5.4 22.3
06:05 1020 30.12 849 25.07 -5 22.9 97 -5.5 22.2
06:10 1020 30.12 849 25.07 -5.1 22.8 97 -5.5 22
06:15 1020 30.12 849 25.07 -5.1 22.7 97 -5.5 22
06:20 1020 30.12 849 25.07 -5.1 22.8 97 -5.6 22
06:25 1020 30.12 849 25.07 -5.2 22.6 97 -5.7 21.8
06:30 1020 30.12 850 25.1 -5.2 22.6 97 -5.7 21.8
06:35 1020 30.12 850 25.1 -5.3 22.5 97 -5.7 21.7
06:40 1021 30.15 850 25.1 -5.3 22.5 97 -5.7 21.7
06:45 1021 30.15 850 25.1 -5.3 22.5 97 -5.7 21.7
06:50 1021 30.15 850 25.1 -5.3 22.4 97 -5.7 21.7
06:55 1021 30.15 850 25.1 -5.3 22.4 97 -5.7 21.7
07:00 1021 30.15 850 25.1 -5.3 22.5 97 -5.7 21.7
07:05 1021 30.15 850 25.1 -5.4 22.3 97 -5.8 21.5
07:10 1021 30.15 850 25.1 -5.4 22.2 97 -5.8 21.5
07:15 1021 30.15 850 25.1 -5.4 22.3 97 -5.8 21.5
07:20 1021 30.15 850 25.1 -5.4 22.3 97 -5.9 21.5
07:25 1021 30.15 851 25.13 -5.4 22.3 97 -5.8 21.5
07:30 1022 30.18 851 25.13 -5.4 22.2 97 -5.8 21.5
07:35 1022 30.18 851 25.13 -5.4 22.3 97 -5.8 21.5
07:40 1022 30.18 851 25.13 -5.4 22.3 97 -5.8 21.5
07:45 1022 30.18 851 25.13 -5.4 22.3 97 -5.8 21.5
07:50 1022 30.18 851 25.13 -5.5 22.2 97 -5.9 21.4
07:55 1022 30.18 851 25.13 -5.4 22.2 97 -5.9 21.4
08:00 1022 30.18 852 25.16 -5.5 22.1 97 -5.9 21.3
08:05 1023 30.21 852 25.16 -5.5 22.1 97 -5.9 21.3
08:10 1023 30.21 852 25.16 -5.5 22.2 97 -5.9 21.4
08:15 1023 30.21 852 25.16 -5.5 22.1 97 -5.9 21.3
08:20 1023 30.21 852 25.16 -5.4 22.2 97 -5.9 21.4
08:25 1023 30.21 852 25.16 -5.4 22.2 97 -5.9 21.4
08:30 1023 30.21 852 25.16 -5.5 22.1 97 -5.9 21.4
08:35 1023 30.21 852 25.16 -5.4 22.2 97 -5.9 21.4
08:40 1023 30.21 853 25.19 -5.4 22.2 97 -5.9 21.4
08:45 1023 30.21 853 25.19 -5.4 22.2 97 -5.9 21.4
08:50 1024 30.24 853 25.19 -5.5 22.2 97 -5.9 21.3
08:55 1024 30.24 853 25.19 -5.4 22.2 97 -5.9 21.5
09:00 1024 30.24 853 25.19 -5.4 22.2 97 -5.9 21.4
09:05 1024 30.24 853 25.19 -5.4 22.2 96 -5.9 21.3
09:10 1024 30.24 853 25.19 -5.5 22.1 96 -6 21.3
09:15 1024 30.24 853 25.19 -5.5 22.2 97 -5.9 21.3
09:20 1024 30.24 853 25.19 -5.4 22.2 96 -5.9 21.3
09:25 1024 30.24 854 25.22 -5.5 22.2 97 -5.9 21.3
09:30 1025 30.27 854 25.22 -5.4 22.2 96 -5.9 21.4
09:35 1025 30.27 854 25.22 -5.4 22.2 96 -5.9 21.3
09:40 1025 30.27 854 25.22 -5.4 22.3 96 -5.9 21.3
09:45 1025 30.27 854 25.22 -5.4 22.3 96 -5.9 21.4
09:50 1025 30.27 854 25.22 -5.4 22.3 96 -5.9 21.3
09:55 1025 30.27 854 25.22 -5.3 22.4 97 -5.8 21.6
10:00 1025 30.27 854 25.22 -5.2 22.6 96 -5.7 21.7
10:05 1025 30.27 854 25.22 -5.3 22.5 96 -5.8 21.5
10:10 1025 30.27 854 25.22 -5.3 22.4 96 -5.9 21.4
10:15 1025 30.27 854 25.22 -5.4 22.3 96 -5.9 21.3
10:20 1025 30.27 855 25.25 -5.4 22.3 96 -5.9 21.4
10:25 1025 30.27 855 25.25 -5.2 22.7 97 -5.6 22
10:30 1025 30.27 854 25.22 -5 23 96 -5.5 22.1
10:35 1025 30.27 855 25.25 -4.9 23.2 97 -5.3 22.4
10:40 1025 30.27 855 25.25 -4.8 23.4 96 -5.3 22.5
10:45 1026 30.3 855 25.25 -4.7 23.5 96 -5.3 22.5
10:50 1026 30.3 855 25.25 -4.8 23.4 96 -5.4 22.3
10:55 1026 30.3 855 25.25 -4.9 23.1 96 -5.5 22.1
11:00 1026 30.3 855 25.25 -5 23 96 -5.6 22
11:05 1026 30.3 855 25.25 -4.9 23.1 96 -5.4 22.2
11:10 1026 30.3 855 25.25 -4.9 23.1 96 -5.5 22
11:15 1026 30.3 855 25.25 -5.1 22.8 95 -5.7 21.7
11:20 1026 30.3 855 25.25 -5.3 22.4 95 -5.9 21.3
11:25 1026 30.3 855 25.25 -5.3 22.5 97 -5.8 21.6
11:30 1026 30.3 855 25.25 -5.1 22.8 96 -5.7 21.8
11:35 1026 30.3 855 25.25 -5.1 22.7 95 -5.8 21.6
11:40 1026 30.3 855 25.25 -5.1 22.8 96 -5.7 21.7
11:45 1026 30.3 855 25.25 -4.9 23.1 96 -5.5 22.1
11:50 1026 30.3 855 25.25 -4.8 23.4 96 -5.4 22.3
11:55 1026 30.3 855 25.25 -4.6 23.7 95 -5.3 22.5
12:00 1026 30.3 855 25.25 -4.7 23.5 95 -5.4 22.4
12:05 1026 30.3 855 25.25 -4.9 23.2 95 -5.6 22
12:10 1026 30.3 855 25.25 -5 23.1 95 -5.7 21.8
12:15 1026 30.3 855 25.25 -5.1 22.8 95 -5.8 21.5
12:20 1026 30.3 855 25.25 -5 23 95 -5.7 21.8
12:25 1026 30.3 855 25.25 -4.8 23.4 95 -5.4 22.2
12:30 1026 30.3 855 25.25 -4.5 23.9 95 -5.2 22.6
12:35 1026 30.3 855 25.25 -4.5 23.8 94 -5.3 22.4
12:40 1026 30.3 855 25.25 -4.9 23.3 94 -5.7 21.7
12:45 1026 30.3 855 25.25 -5.2 22.7 93 -6.1 21.1
12:50 1026 30.3 855 25.25 -5.4 22.2 94 -6.2 20.9
12:55 1026 30.3 855 25.25 -5.5 22.2 94 -6.3 20.7
13:00 1025 30.27 855 25.25 -5.5 22 95 -6.3 20.7
13:05 1026 30.3 855 25.25 -5.6 22 95 -6.3 20.7
13:10 1026 30.3 855 25.25 -5.5 22 95 -6.3 20.7
13:15 1025 30.27 855 25.25 -5.6 21.9 94 -6.4 20.6
13:20 1026 30.3 855 25.25 -5.6 21.9 94 -6.4 20.4
13:25 1026 30.3 855 25.25 -5.5 22 93 -6.4 20.4
13:30 1026 30.3 855 25.25 -5.5 22.1 94 -6.3 20.6
13:35 1026 30.3 855 25.25 -5.3 22.4 95 -5.9 21.3
13:40 1026 30.3 855 25.25 -5.1 22.8 95 -5.8 21.5
13:45 1026 30.3 855 25.25 -4.9 23.2 95 -5.6 21.9
13:50 1026 30.3 855 25.25 -5 23.1 94 -5.8 21.5
13:55 1026 30.3 855 25.25 -5 23 94 -5.8 21.5
14:00 1026 30.3 855 25.25 -5.1 22.9 93 -6 21.2
14:05 1026 30.3 855 25.25 -5.1 22.8 94 -6 21.3
14:10 1026 30.3 855 25.25 -5.1 22.7 94 -5.9 21.4
14:15 1026 30.3 855 25.25 -5.1 22.9 93 -6 21.2
14:20 1026 30.3 855 25.25 -5.1 22.9 93 -6 21.3
14:25 1026 30.3 855 25.25 -5.2 22.6 93 -6.1 20.9
14:30 1026 30.3 855 25.25 -5.4 22.3 93 -6.3 20.6
14:35 1026 30.3 855 25.25 -5.5 22.2 93 -6.4 20.5
14:40 1026 30.3 855 25.25 -5.5 22.1 93 -6.4 20.4
14:45 1026 30.3 856 25.28 -5.5 22.1 93 -6.5 20.4
14:50 1026 30.3 856 25.28 -5.5 22 93 -6.5 20.3
14:55 1026 30.3 856 25.28 -5.5 22.1 93 -6.4 20.4
15:00 1026 30.3 856 25.28 -5.6 22 93 -6.5 20.3
15:05 1026 30.3 856 25.28 -5.6 21.9 94 -6.5 20.4
15:10 1026 30.3 856 25.28 -5.6 22 94 -6.4 20.4
15:15 1027 30.33 856 25.28 -5.5 22.1 94 -6.3 20.7
15:20 1027 30.33 856 25.28 -5.4 22.2 94 -6.2 20.8
15:25 1027 30.33 856 25.28 -5.4 22.4 95 -6.1 21
15:30 1027 30.33 856 25.28 -5.2 22.6 95 -6 21.3
15:35 1027 30.33 856 25.28 -5 22.9 95 -5.7 21.8
15:40 1027 30.33 856 25.28 -4.8 23.3 96 -5.4 22.3
15:45 1027 30.33 857 25.31 -4.7 23.6 95 -5.3 22.5
15:50 1028 30.36 857 25.31 -4.6 23.7 95 -5.3 22.5
15:55 1028 30.36 857 25.31 -4.6 23.7 95 -5.3 22.5
16:00 1028 30.36 857 25.31 -4.6 23.8 95 -5.3 22.5
16:05 1028 30.36 857 25.31 -4.7 23.6 95 -5.4 22.2
16:10 1028 30.36 857 25.31 -4.7 23.6 94 -5.5 22
16:15 1028 30.36 857 25.31 -4.8 23.4 94 -5.6 22
16:20 1028 30.36 858 25.34 -4.8 23.4 95 -5.5 22.1
16:25 1028 30.36 858 25.34 -4.9 23.2 94 -5.7 21.8
16:30 1029 30.39 858 25.34 -4.9 23.1 95 -5.6 21.8
16:35 1029 30.39 858 25.34 -4.9 23.1 95 -5.6 21.9
16:40 1029 30.39 858 25.34 -4.9 23.1 95 -5.6 21.9
16:45 1029 30.39 858 25.34 -5 23.1 95 -5.6 21.9
16:50 1029 30.39 858 25.34 -5 23 95 -5.7 21.8
16:55 1029 30.39 858 25.34 -5 23 95 -5.7 21.8
17:00 1029 30.39 858 25.34 -5 23 95 -5.6 21.8
17:05 1029 30.39 858 25.34 -5 23 95 -5.7 21.7
17:10 1029 30.39 858 25.34 -5.1 22.8 95 -5.8 21.5
17:15 1029 30.39 858 25.34 -5.1 22.7 95 -5.8 21.5
17:20 1029 30.39 858 25.34 -5.2 22.6 95 -5.9 21.4
17:25 1029 30.39 858 25.34 -5.2 22.7 95 -5.9 21.4
17:30 1029 30.39 858 25.34 -5.2 22.6 95 -6 21.2
17:35 1029 30.39 858 25.34 -5.3 22.4 94 -6.1 21
17:40 1029 30.39 858 25.34 -5.4 22.3 95 -6.1 21.1
17:45 1029 30.39 858 25.34 -5.4 22.3 95 -6.1 21
17:50 1029 30.39 858 25.34 -5.5 22.1 95 -6.2 20.8
17:55 1029 30.39 858 25.34 -5.5 22.1 95 -6.2 20.9
18:00 1029 30.39 858 25.34 -5.5 22.1 95 -6.3 20.7
18:05 1029 30.39 858 25.34 -5.6 21.9 95 -6.3 20.7
18:10 1029 30.39 858 25.34 -5.5 22 95 -6.2 20.8
18:15 1029 30.39 858 25.34 -5.4 22.2 95 -6.1 21.1
18:20 1029 30.39 858 25.34 -5.4 22.3 95 -6.1 21
18:25 1029 30.39 858 25.34 -5.4 22.4 95 -6.1 21.1
18:30 1029 30.39 858 25.34 -5.3 22.4 94 -6.1 21
18:35 1029 30.39 858 25.34 -5.4 22.3 95 -6.1 21
18:40 1029 30.39 859 25.37 -5.4 22.3 95 -6.2 20.9
18:45 1029 30.39 859 25.37 -5.4 22.2 94 -6.2 20.8
18:50 1029 30.39 859 25.37 -5.5 22.2 94 -6.3 20.7
18:55 1029 30.39 859 25.37 -5.5 22.1 94 -6.3 20.6
19:00 1029 30.39 859 25.37 -5.5 22 94 -6.4 20.5
19:05 1029 30.39 859 25.37 -5.6 21.9 94 -6.5 20.4
19:10 1029 30.39 859 25.37 -5.7 21.8 94 -6.4 20.4
19:15 1029 30.39 859 25.37 -5.7 21.8 94 -6.5 20.3
19:20 1030 30.42 859 25.37 -5.8 21.6 95 -6.5 20.3
19:25 1030 30.42 859 25.37 -5.7 21.7 95 -6.4 20.4
19:30 1030 30.42 859 25.37 -5.8 21.6 94 -6.7 20
19:35 1030 30.42 859 25.37 -5.9 21.4 94 -6.7 20
19:40 1030 30.42 859 25.37 -5.9 21.3 94 -6.8 19.8
19:45 1030 30.42 859 25.37 -6 21.3 94 -6.8 19.7
19:50 1030 30.42 859 25.37 -6 21.3 94 -6.9 19.7
19:55 1030 30.42 859 25.37 -5.9 21.3 94 -6.7 19.9
20:00 1030 30.42 859 25.37 -6 21.3 93 -6.9 19.6
20:05 1030 30.42 859 25.37 -6.2 20.8 92 -7.2 19
20:10 1030 30.42 859 25.37 -6.5 20.3 93 -7.5 18.6
20:15 1030 30.42 859 25.37 -6.6 20.1 93 -7.5 18.5
20:20 1030 30.42 859 25.37 -6.6 20.1 93 -7.5 18.5
20:25 1030 30.42 859 25.37 -6.6 20 93 -7.5 18.4
20:30 1030 30.42 859 25.37 -6.7 20 94 -7.5 18.5
20:35 1030 30.42 859 25.37 -6.6 20.1 94 -7.4 18.7
20:40 1030 30.42 859 25.37 -6.5 20.3 94 -7.4 18.7
20:45 1030 30.42 859 25.37 -6.4 20.6 94 -7.2 19.1
20:50 1030 30.42 859 25.37 -6.3 20.7 94 -7.1 19.2
20:55 1030 30.42 859 25.37 -6.3 20.7 93 -7.2 19
21:00 1030 30.42 859 25.37 -6.4 20.5 93 -7.4 18.7
21:05 1030 30.42 859 25.37 -6.5 20.2 93 -7.6 18.4
21:10 1030 30.42 859 25.37 -6.7 20 93 -7.6 18.3
21:15 1030 30.42 859 25.37 -6.7 19.9 93 -7.7 18.2
21:20 1030 30.42 859 25.37 -6.7 19.9 93 -7.7 18.2
21:25 1030 30.42 859 25.37 -6.7 19.9 93 -7.7 18.2
21:30 1030 30.42 859 25.37 -6.8 19.8 93 -7.7 18.1
21:35 1030 30.42 859 25.37 -6.8 19.8 93 -7.8 18
21:40 1030 30.42 859 25.37 -6.8 19.8 93 -7.7 18.1
21:45 1030 30.42 859 25.37 -6.7 20 93 -7.6 18.3
21:50 1029 30.39 859 25.37 -6.6 20.2 93 -7.5 18.5
21:55 1030 30.42 859 25.37 -6.5 20.3 93 -7.4 18.6
22:00 1029 30.39 859 25.37 -6.5 20.3 93 -7.4 18.7
22:05 1029 30.39 859 25.37 -6.4 20.5 93 -7.4 18.7
22:10 1029 30.39 859 25.37 -6.3 20.6 93 -7.3 18.9
22:15 1030 30.42 859 25.37 -6.4 20.5 93 -7.3 18.8
22:20 1030 30.42 859 25.37 -6.4 20.5 93 -7.3 18.9
22:25 1030 30.42 859 25.37 -6.2 20.8 94 -7.1 19.3
22:30 1029 30.39 859 25.37 -6.1 21 93 -7 19.3
22:35 1030 30.42 859 25.37 -6.1 21 93 -7.1 19.3
22:40 1029 30.39 859 25.37 -6.3 20.7 94 -7.1 19.3
22:45 1029 30.39 859 25.37 -6.4 20.6 94 -7.2 19.1
22:50 1029 30.39 859 25.37 -6.5 20.4 94 -7.3 18.9
22:55 1029 30.39 859 25.37 -6.5 20.2 93 -7.5 18.6
23:00 1029 30.39 859 25.37 -6.6 20.1 93 -7.6 18.4
23:05 1029 30.39 859 25.37 -6.6 20.2 95 -7.3 18.9
23:10 1029 30.39 859 25.37 -6.5 20.3 93 -7.4 18.7
23:15 1029 30.39 859 25.37 -6.5 20.3 94 -7.4 18.7
23:20 1029 30.39 859 25.37 -6.5 20.3 94 -7.3 18.9
23:25 1029 30.39 859 25.37 -6.6 20.1 94 -7.4 18.6
23:30 1029 30.39 858 25.34 -6.7 19.9 94 -7.5 18.4
23:35 1029 30.39 858 25.34 -6.8 19.8 94 -7.6 18.3
23:40 1029 30.39 858 25.34 -6.8 19.8 94 -7.6 18.3
23:45 1029 30.39 858 25.34 -6.8 19.8 94 -7.6 18.3
23:50 1029 30.39 858 25.34 -6.8 19.8 94 -7.6 18.3
23:55 1029 30.39 858 25.34 -6.8 19.8 94 -7.6 18.4
24:00 1029 30.39 858 25.34 -6.8 19.7 94 -7.7 18.2